An Dro Mad — FAC2287 — position and weather

sailwx.info

Track history (hours):
 
Tides and Currents Weather Stations Pressure Air Temp Water Temp Dewpoint Dewpoint Depression Visibility Wind Speed Wind Dir Waves Ship Positions

An Dro Mad

Last reported at 2017-Sep-02 16:05 UTC. Time now 2017-Nov-17 17:47 UTC.
Position N 47°29' W 003°06'.
Warning: this ship's position is months out of date.

Length 15 m.

Type: Sailing vessel. MMSI: 227263490.

Date/timePositionNaut miles runAvg speedWind from/ knotsBaromVisibWave heightAir tempDewpointWater temp
2017-Sep-02 16:05N 47°29' W 003°06'0 2.8
2017-Sep-02 15:56N 47°29' W 003°05'1 2.7
2017-Sep-02 15:30N 47°29' W 003°03'3 5.4
2017-Sep-02 15:00N 47°27' W 003°00'3 5.5
2017-Sep-02 14:30N 47°25' W 002°58'3 5.2
2017-Sep-02 14:00N 47°27' W 002°56'3 6.2
2017-Sep-02 13:30N 47°23' W 002°56'3 3.5
2017-Sep-02 12:41N 47°22' W 002°59'0 1.9
2017-Sep-02 12:30N 47°22' W 002°60'2 3.3
2017-Sep-02 12:00N 47°23' W 003°00'3 5.7
2017-Sep-02 11:30N 47°26' W 003°01'3 5.5
2017-Sep-02 11:00N 47°29' W 003°03'2 3.0
2017-Sep-02 10:29N 47°30' W 003°05'1 1.2
2017-Sep-02 10:00N 47°30' W 003°05'0 1.0
2017-Sep-02 09:30N 47°29' W 003°06'  
Track history (hours):
 
Tides and Currents Weather Stations Pressure Air Temp Water Temp Dewpoint Dewpoint Depression Visibility Wind Speed Wind Dir Waves Ship Positions

An Dro Mad

Last reported at 2017-Sep-02 16:05 UTC. Time now 2017-Nov-17 17:47 UTC.
Position N 47°29' W 003°06'.
Warning: this ship's position is months out of date.

Length 15 m.

Type: Sailing vessel. MMSI: 227263490.

Date/timePositionNaut miles runAvg speedWind from/ knotsBaromVisibWave heightAir tempDewpointWater temp
2017-Sep-02 16:05N 47°29' W 003°06'0 2.8
2017-Sep-02 15:56N 47°29' W 003°05'1 2.7
2017-Sep-02 15:30N 47°29' W 003°03'3 5.4
2017-Sep-02 15:00N 47°27' W 003°00'3 5.5
2017-Sep-02 14:30N 47°25' W 002°58'3 5.2
2017-Sep-02 14:00N 47°27' W 002°56'3 6.2
2017-Sep-02 13:30N 47°23' W 002°56'3 3.5
2017-Sep-02 12:41N 47°22' W 002°59'0 1.9
2017-Sep-02 12:30N 47°22' W 002°60'2 3.3
2017-Sep-02 12:00N 47°23' W 003°00'3 5.7
2017-Sep-02 11:30N 47°26' W 003°01'3 5.5
2017-Sep-02 11:00N 47°29' W 003°03'2 3.0
2017-Sep-02 10:29N 47°30' W 003°05'1 1.2
2017-Sep-02 10:00N 47°30' W 003°05'0 1.0
2017-Sep-02 09:30N 47°29' W 003°06'  

Dump ship's entire track history